sensor_id;sensor_type;location;lat;lon;timestamp;pressure;altitude;pressure_sealevel;temperature;humidity
6216;BME280;3141;49.234;9.326;2023-11-19T00:00:24;99621.47;;;11.18;87.65
6216;BME280;3141;49.234;9.326;2023-11-19T00:01:25;99626.63;;;11.20;88.01
6216;BME280;3141;49.234;9.326;2023-11-19T00:02:26;99612.22;;;11.22;87.87
6216;BME280;3141;49.234;9.326;2023-11-19T00:03:27;99622.81;;;11.30;87.49
6216;BME280;3141;49.234;9.326;2023-11-19T00:04:28;99618.38;;;11.31;87.56
6216;BME280;3141;49.234;9.326;2023-11-19T00:05:31;99612.22;;;11.22;88.20
6216;BME280;3141;49.234;9.326;2023-11-19T00:06:32;99606.75;;;11.24;88.21
6216;BME280;3141;49.234;9.326;2023-11-19T00:07:32;99605.28;;;11.29;87.68
6216;BME280;3141;49.234;9.326;2023-11-19T00:08:37;99610.25;;;11.24;88.32
6216;BME280;3141;49.234;9.326;2023-11-19T00:09:38;99610.88;;;11.18;88.29
6216;BME280;3141;49.234;9.326;2023-11-19T00:10:40;99606.94;;;11.22;88.53
6216;BME280;3141;49.234;9.326;2023-11-19T00:11:41;99607.25;;;11.19;88.96
6216;BME280;3141;49.234;9.326;2023-11-19T00:12:43;99603.16;;;11.25;88.61
6216;BME280;3141;49.234;9.326;2023-11-19T00:13:48;99607.44;;;11.26;87.88
6216;BME280;3141;49.234;9.326;2023-11-19T00:14:49;99604.56;;;11.11;89.18
6216;BME280;3141;49.234;9.326;2023-11-19T00:15:51;99607.09;;;11.13;89.43
6216;BME280;3141;49.234;9.326;2023-11-19T00:16:52;99603.59;;;11.04;89.24
6216;BME280;3141;49.234;9.326;2023-11-19T00:17:54;99606.53;;;11.01;90.30
6216;BME280;3141;49.234;9.326;2023-11-19T00:18:55;99603.72;;;11.03;90.02
6216;BME280;3141;49.234;9.326;2023-11-19T00:19:57;99601.91;;;11.03;89.90
6216;BME280;3141;49.234;9.326;2023-11-19T00:20:58;99605.06;;;10.99;90.15
6216;BME280;3141;49.234;9.326;2023-11-19T00:21:58;99599.59;;;11.08;90.39
6216;BME280;3141;49.234;9.326;2023-11-19T00:23:03;99594.97;;;11.02;90.07
6216;BME280;3141;49.234;9.326;2023-11-19T00:24:04;99596.81;;;11.10;89.95
6216;BME280;3141;49.234;9.326;2023-11-19T00:25:06;99594.50;;;11.15;89.55
6216;BME280;3141;49.234;9.326;2023-11-19T00:26:07;99598.97;;;11.14;89.57
6216;BME280;3141;49.234;9.326;2023-11-19T00:27:08;99583.78;;;11.16;89.59
6216;BME280;3141;49.234;9.326;2023-11-19T00:28:09;99589.09;;;11.24;89.26
6216;BME280;3141;49.234;9.326;2023-11-19T00:29:10;99588.25;;;11.24;88.85
6216;BME280;3141;49.234;9.326;2023-11-19T00:30:11;99589.41;;;11.21;89.43
6216;BME280;3141;49.234;9.326;2023-11-19T00:31:12;99590.72;;;11.25;88.76
6216;BME280;3141;49.234;9.326;2023-11-19T00:32:13;99587.75;;;11.20;89.17
6216;BME280;3141;49.234;9.326;2023-11-19T00:33:14;99585.75;;;11.22;89.28
6216;BME280;3141;49.234;9.326;2023-11-19T00:34:15;99591.91;;;11.23;88.96
6216;BME280;3141;49.234;9.326;2023-11-19T00:35:16;99578.13;;;11.11;90.02
6216;BME280;3141;49.234;9.326;2023-11-19T00:36:17;99588.69;;;11.11;90.11
6216;BME280;3141;49.234;9.326;2023-11-19T00:37:18;99586.56;;;11.15;90.41
6216;BME280;3141;49.234;9.326;2023-11-19T00:38:19;99578.16;;;11.19;90.19
6216;BME280;3141;49.234;9.326;2023-11-19T00:39:20;99584.63;;;11.25;89.42
6216;BME280;3141;49.234;9.326;2023-11-19T00:40:21;99573.53;;;11.29;89.40
6216;BME280;3141;49.234;9.326;2023-11-19T00:41:23;99574.84;;;11.25;89.06
6216;BME280;3141;49.234;9.326;2023-11-19T00:42:26;99568.88;;;11.23;89.19
6216;BME280;3141;49.234;9.326;2023-11-19T00:43:27;99572.53;;;11.30;88.96
6216;BME280;3141;49.234;9.326;2023-11-19T00:44:28;99572.22;;;11.33;88.53
6216;BME280;3141;49.234;9.326;2023-11-19T00:45:29;99574.03;;;11.41;88.13
6216;BME280;3141;49.234;9.326;2023-11-19T00:46:30;99578.00;;;11.29;88.81
6216;BME280;3141;49.234;9.326;2023-11-19T00:47:33;99576.53;;;11.26;89.45
6216;BME280;3141;49.234;9.326;2023-11-19T00:48:34;99584.28;;;11.28;89.37
6216;BME280;3141;49.234;9.326;2023-11-19T00:49:35;99575.19;;;11.22;89.57
6216;BME280;3141;49.234;9.326;2023-11-19T00:50:36;99574.22;;;11.31;89.68
6216;BME280;3141;49.234;9.326;2023-11-19T00:51:37;99566.59;;;11.36;89.10
6216;BME280;3141;49.234;9.326;2023-11-19T00:52:38;99559.84;;;11.42;88.68
6216;BME280;3141;49.234;9.326;2023-11-19T00:53:39;99558.00;;;11.42;88.35
6216;BME280;3141;49.234;9.326;2023-11-19T00:54:40;99552.38;;;11.37;88.31
6216;BME280;3141;49.234;9.326;2023-11-19T00:55:41;99548.88;;;11.29;88.69
6216;BME280;3141;49.234;9.326;2023-11-19T00:56:42;99547.06;;;11.37;88.34
6216;BME280;3141;49.234;9.326;2023-11-19T00:57:43;99539.81;;;11.39;88.26
6216;BME280;3141;49.234;9.326;2023-11-19T00:58:45;99541.16;;;11.43;88.46
6216;BME280;3141;49.234;9.326;2023-11-19T00:59:46;99540.81;;;11.38;88.28
6216;BME280;3141;49.234;9.326;2023-11-19T01:00:48;99539.97;;;11.38;88.30
6216;BME280;3141;49.234;9.326;2023-11-19T01:01:49;99535.00;;;11.43;88.54
6216;BME280;3141;49.234;9.326;2023-11-19T01:02:51;99528.56;;;11.45;88.06
6216;BME280;3141;49.234;9.326;2023-11-19T01:03:53;99531.72;;;11.49;87.84
6216;BME280;3141;49.234;9.326;2023-11-19T01:04:54;99529.88;;;11.49;87.89
6216;BME280;3141;49.234;9.326;2023-11-19T01:05:56;99529.72;;;11.51;87.86
6216;BME280;3141;49.234;9.326;2023-11-19T01:06:57;99533.88;;;11.53;87.67
6216;BME280;3141;49.234;9.326;2023-11-19T01:07:58;99537.34;;;11.54;87.65
6216;BME280;3141;49.234;9.326;2023-11-19T01:08:59;99537.34;;;11.54;87.47
6216;BME280;3141;49.234;9.326;2023-11-19T01:10:00;99539.16;;;11.53;87.48
6216;BME280;3141;49.234;9.326;2023-11-19T01:11:02;99533.53;;;11.48;87.53
6216;BME280;3141;49.234;9.326;2023-11-19T01:12:03;99535.50;;;11.46;88.04
6216;BME280;3141;49.234;9.326;2023-11-19T01:13:04;99537.84;;;11.41;88.24
6216;BME280;3141;49.234;9.326;2023-11-19T01:14:06;99532.38;;;11.43;88.18
6216;BME280;3141;49.234;9.326;2023-11-19T01:15:07;99528.25;;;11.48;88.10
6216;BME280;3141;49.234;9.326;2023-11-19T01:16:09;99525.91;;;11.53;88.04
6216;BME280;3141;49.234;9.326;2023-11-19T01:17:10;99529.88;;;11.49;87.92
6216;BME280;3141;49.234;9.326;2023-11-19T01:18:11;99527.41;;;11.40;88.08
6216;BME280;3141;49.234;9.326;2023-11-19T01:19:12;99529.72;;;11.43;88.00
6216;BME280;3141;49.234;9.326;2023-11-19T01:20:12;99532.69;;;11.48;88.00
6216;BME280;3141;49.234;9.326;2023-11-19T01:21:14;99539.34;;;11.44;88.20
6216;BME280;3141;49.234;9.326;2023-11-19T01:22:15;99536.50;;;11.37;88.45
6216;BME280;3141;49.234;9.326;2023-11-19T01:23:16;99527.56;;;11.38;89.04
6216;BME280;3141;49.234;9.326;2023-11-19T01:24:17;99539.47;;;11.42;88.88
6216;BME280;3141;49.234;9.326;2023-11-19T01:25:18;99539.81;;;11.39;89.17
6216;BME280;3141;49.234;9.326;2023-11-19T01:26:19;99541.66;;;11.47;88.98
6216;BME280;3141;49.234;9.326;2023-11-19T01:27:20;99541.28;;;11.34;89.45
6216;BME280;3141;49.234;9.326;2023-11-19T01:28:21;99541.47;;;11.48;89.34
6216;BME280;3141;49.234;9.326;2023-11-19T01:29:22;99542.16;;;11.50;88.53
6216;BME280;3141;49.234;9.326;2023-11-19T01:30:23;99542.47;;;11.47;88.72
6216;BME280;3141;49.234;9.326;2023-11-19T01:31:24;99539.66;;;11.49;88.27
6216;BME280;3141;49.234;9.326;2023-11-19T01:32:25;99539.00;;;11.55;88.06
6216;BME280;3141;49.234;9.326;2023-11-19T01:33:26;99544.63;;;11.52;88.06
6216;BME280;3141;49.234;9.326;2023-11-19T01:34:29;99535.00;;;11.51;88.45
6216;BME280;3141;49.234;9.326;2023-11-19T01:35:30;99543.13;;;11.49;88.73
6216;BME280;3141;49.234;9.326;2023-11-19T01:36:31;99538.31;;;11.53;88.82
6216;BME280;3141;49.234;9.326;2023-11-19T01:37:32;99547.09;;;11.53;88.70
6216;BME280;3141;49.234;9.326;2023-11-19T01:38:34;99545.13;;;11.55;88.35
6216;BME280;3141;49.234;9.326;2023-11-19T01:39:35;99542.66;;;11.54;88.89
6216;BME280;3141;49.234;9.326;2023-11-19T01:40:36;99538.00;;;11.48;89.13
6216;BME280;3141;49.234;9.326;2023-11-19T01:41:37;99533.03;;;11.53;89.12
6216;BME280;3141;49.234;9.326;2023-11-19T01:42:40;99536.34;;;11.47;89.61
6216;BME280;3141;49.234;9.326;2023-11-19T01:43:41;99536.50;;;11.53;89.10
6216;BME280;3141;49.234;9.326;2023-11-19T01:44:42;99531.53;;;11.58;88.71
6216;BME280;3141;49.234;9.326;2023-11-19T01:45:43;99535.00;;;11.51;88.75
6216;BME280;3141;49.234;9.326;2023-11-19T01:46:45;99535.84;;;11.43;89.46
6216;BME280;3141;49.234;9.326;2023-11-19T01:47:50;99536.50;;;11.37;90.70
6216;BME280;3141;49.234;9.326;2023-11-19T01:48:52;99525.59;;;11.40;90.52
6216;BME280;3141;49.234;9.326;2023-11-19T01:49:53;99519.31;;;11.41;90.10
6216;BME280;3141;49.234;9.326;2023-11-19T01:50:55;99527.56;;;11.46;90.32
6216;BME280;3141;49.234;9.326;2023-11-19T01:51:57;99508.72;;;11.41;89.97
6216;BME280;3141;49.234;9.326;2023-11-19T01:52:59;99510.72;;;11.47;89.99
6216;BME280;3141;49.234;9.326;2023-11-19T01:54:01;99525.59;;;11.48;89.18
6216;BME280;3141;49.234;9.326;2023-11-19T01:55:02;99526.59;;;11.47;90.10
6216;BME280;3141;49.234;9.326;2023-11-19T01:56:05;99526.41;;;11.41;89.78
6216;BME280;3141;49.234;9.326;2023-11-19T01:57:09;99528.06;;;11.34;90.38
6216;BME280;3141;49.234;9.326;2023-11-19T01:58:11;99530.56;;;11.35;90.78
6216;BME280;3141;49.234;9.326;2023-11-19T01:59:13;99527.06;;;11.35;90.92
6216;BME280;3141;49.234;9.326;2023-11-19T02:00:15;99526.91;;;11.28;91.17
6216;BME280;3141;49.234;9.326;2023-11-19T02:01:17;99529.19;;;11.23;91.45
6216;BME280;3141;49.234;9.326;2023-11-19T02:02:18;99518.94;;;11.20;91.88
6216;BME280;3141;49.234;9.326;2023-11-19T02:03:21;99522.94;;;11.32;91.36
6216;BME280;3141;49.234;9.326;2023-11-19T02:04:22;99533.34;;;11.34;91.19
6216;BME280;3141;49.234;9.326;2023-11-19T02:05:23;99539.47;;;11.26;90.97
6216;BME280;3141;49.234;9.326;2023-11-19T02:06:25;99538.63;;;11.26;91.24
6216;BME280;3141;49.234;9.326;2023-11-19T02:07:26;99543.78;;;11.35;90.91
6216;BME280;3141;49.234;9.326;2023-11-19T02:08:27;99540.13;;;11.44;90.51
6216;BME280;3141;49.234;9.326;2023-11-19T02:09:28;99529.72;;;11.51;90.18
6216;BME280;3141;49.234;9.326;2023-11-19T02:10:30;99537.84;;;11.41;90.25
6216;BME280;3141;49.234;9.326;2023-11-19T02:11:33;99531.38;;;11.36;90.29
6216;BME280;3141;49.234;9.326;2023-11-19T02:12:34;99535.19;;;11.49;90.04
6216;BME280;3141;49.234;9.326;2023-11-19T02:13:37;99533.88;;;11.45;90.11
6216;BME280;3141;49.234;9.326;2023-11-19T02:14:38;99530.38;;;11.45;89.88
6216;BME280;3141;49.234;9.326;2023-11-19T02:15:40;99529.72;;;11.43;90.18
6216;BME280;3141;49.234;9.326;2023-11-19T02:16:42;99527.41;;;11.48;89.65
6216;BME280;3141;49.234;9.326;2023-11-19T02:17:43;99529.88;;;11.49;89.24
6216;BME280;3141;49.234;9.326;2023-11-19T02:18:44;99529.38;;;11.46;89.79
6216;BME280;3141;49.234;9.326;2023-11-19T02:19:45;99530.22;;;11.46;90.08
6216;BME280;3141;49.234;9.326;2023-11-19T02:20:46;99527.06;;;11.51;89.75
6216;BME280;3141;49.234;9.326;2023-11-19T02:21:47;99518.28;;;11.42;90.06
6216;BME280;3141;49.234;9.326;2023-11-19T02:22:48;99521.13;;;11.49;90.06
6216;BME280;3141;49.234;9.326;2023-11-19T02:23:51;99520.81;;;11.44;90.02
6216;BME280;3141;49.234;9.326;2023-11-19T02:24:55;99519.28;;;11.49;90.04
6216;BME280;3141;49.234;9.326;2023-11-19T02:26:05;99520.13;;;11.50;89.27
6216;BME280;3141;49.234;9.326;2023-11-19T02:27:23;99525.59;;;11.56;89.11
6216;BME280;3141;49.234;9.326;2023-11-19T02:28:26;99520.78;;;11.60;88.98
6216;BME280;3141;49.234;9.326;2023-11-19T02:29:28;99517.47;;;11.58;88.97
6216;BME280;3141;49.234;9.326;2023-11-19T02:30:29;99518.00;;;11.45;89.67
6216;BME280;3141;49.234;9.326;2023-11-19T02:31:30;99520.13;;;11.50;89.49
6216;BME280;3141;49.234;9.326;2023-11-19T02:32:31;99506.22;;;11.48;90.37
6216;BME280;3141;49.234;9.326;2023-11-19T02:33:32;99520.97;;;11.50;89.80
6216;BME280;3141;49.234;9.326;2023-11-19T02:34:33;99506.56;;;11.45;90.61
6216;BME280;3141;49.234;9.326;2023-11-19T02:35:34;99501.78;;;11.48;90.35
6216;BME280;3141;49.234;9.326;2023-11-19T02:36:35;99507.06;;;11.48;90.61
6216;BME280;3141;49.234;9.326;2023-11-19T02:37:36;99506.41;;;11.46;90.43
6216;BME280;3141;49.234;9.326;2023-11-19T02:38:37;99511.69;;;11.46;90.46
6216;BME280;3141;49.234;9.326;2023-11-19T02:39:38;99504.06;;;11.51;90.16
6216;BME280;3141;49.234;9.326;2023-11-19T02:40:40;99501.78;;;11.48;89.86
6216;BME280;3141;49.234;9.326;2023-11-19T02:41:40;99491.16;;;11.56;89.97
6216;BME280;3141;49.234;9.326;2023-11-19T02:42:41;99493.50;;;11.51;89.67
6216;BME280;3141;49.234;9.326;2023-11-19T02:43:42;99490.34;;;11.48;90.28
6216;BME280;3141;49.234;9.326;2023-11-19T02:44:44;99484.56;;;11.52;89.68
6216;BME280;3141;49.234;9.326;2023-11-19T02:45:46;99485.72;;;11.42;90.16
6216;BME280;3141;49.234;9.326;2023-11-19T02:46:47;99487.38;;;11.43;90.37
6216;BME280;3141;49.234;9.326;2023-11-19T02:47:49;99488.38;;;11.42;90.37
6216;BME280;3141;49.234;9.326;2023-11-19T02:48:50;99492.66;;;11.51;90.46
6216;BME280;3141;49.234;9.326;2023-11-19T02:49:51;99493.81;;;11.56;89.82
6216;BME280;3141;49.234;9.326;2023-11-19T02:50:54;99492.19;;;11.47;90.41
6216;BME280;3141;49.234;9.326;2023-11-19T02:51:55;99492.66;;;11.59;89.83
6216;BME280;3141;49.234;9.326;2023-11-19T02:52:56;99494.13;;;11.61;89.56
6216;BME280;3141;49.234;9.326;2023-11-19T02:53:57;99484.75;;;11.67;89.27
6216;BME280;3141;49.234;9.326;2023-11-19T02:54:58;99487.22;;;11.69;89.13
6216;BME280;3141;49.234;9.326;2023-11-19T02:56:00;99481.25;;;11.58;89.29
6216;BME280;3141;49.234;9.326;2023-11-19T02:57:20;99484.41;;;11.54;89.83
6216;BME280;3141;49.234;9.326;2023-11-19T02:58:21;99487.38;;;11.43;90.10
6216;BME280;3141;49.234;9.326;2023-11-19T02:59:24;99473.97;;;11.44;90.30
6216;BME280;3141;49.234;9.326;2023-11-19T03:00:28;99478.94;;;11.39;90.91
6216;BME280;3141;49.234;9.326;2023-11-19T03:01:36;99476.47;;;11.30;91.32
6216;BME280;3141;49.234;9.326;2023-11-19T03:02:40;99473.66;;;11.31;91.61
6216;BME280;3141;49.234;9.326;2023-11-19T03:03:45;99459.25;;;11.42;91.47
6216;BME280;3141;49.234;9.326;2023-11-19T03:04:50;99454.97;;;11.49;90.67
6216;BME280;3141;49.234;9.326;2023-11-19T03:05:51;99449.66;;;11.41;90.45
6216;BME280;3141;49.234;9.326;2023-11-19T03:06:52;99441.88;;;11.39;91.07
6216;BME280;3141;49.234;9.326;2023-11-19T03:07:54;99436.09;;;11.36;91.34
6216;BME280;3141;49.234;9.326;2023-11-19T03:08:55;99435.13;;;11.37;91.18
6216;BME280;3141;49.234;9.326;2023-11-19T03:09:56;99443.22;;;11.43;90.86
6216;BME280;3141;49.234;9.326;2023-11-19T03:10:57;99438.25;;;11.48;90.54
6216;BME280;3141;49.234;9.326;2023-11-19T03:11:58;99454.28;;;11.55;90.51
6216;BME280;3141;49.234;9.326;2023-11-19T03:12:59;99448.50;;;11.59;90.31
6216;BME280;3141;49.234;9.326;2023-11-19T03:14:02;99454.16;;;11.65;90.11
6216;BME280;3141;49.234;9.326;2023-11-19T03:15:04;99446.84;;;11.67;89.46
6216;BME280;3141;49.234;9.326;2023-11-19T03:16:05;99441.53;;;11.67;89.29
6216;BME280;3141;49.234;9.326;2023-11-19T03:17:06;99444.84;;;11.69;89.25
6216;BME280;3141;49.234;9.326;2023-11-19T03:18:07;99443.69;;;11.71;89.27
6216;BME280;3141;49.234;9.326;2023-11-19T03:19:09;99443.34;;;11.74;89.07
6216;BME280;3141;49.234;9.326;2023-11-19T03:20:11;99438.91;;;11.75;89.11
6216;BME280;3141;49.234;9.326;2023-11-19T03:21:15;99440.03;;;11.72;89.00
6216;BME280;3141;49.234;9.326;2023-11-19T03:22:16;99434.91;;;11.71;89.29
6216;BME280;3141;49.234;9.326;2023-11-19T03:23:18;99435.75;;;11.63;89.25
6216;BME280;3141;49.234;9.326;2023-11-19T03:24:19;99440.22;;;11.62;89.55
6216;BME280;3141;49.234;9.326;2023-11-19T03:25:20;99447.66;;;11.59;89.65
6216;BME280;3141;49.234;9.326;2023-11-19T03:26:21;99438.88;;;11.58;89.62
6216;BME280;3141;49.234;9.326;2023-11-19T03:27:22;99430.78;;;11.60;89.92
6216;BME280;3141;49.234;9.326;2023-11-19T03:28:23;99428.31;;;11.50;90.37
6216;BME280;3141;49.234;9.326;2023-11-19T03:29:24;99421.53;;;11.48;90.49
6216;BME280;3141;49.234;9.326;2023-11-19T03:30:27;99432.44;;;11.53;90.18
6216;BME280;3141;49.234;9.326;2023-11-19T03:31:28;99434.78;;;11.56;90.36
6216;BME280;3141;49.234;9.326;2023-11-19T03:32:33;99428.47;;;11.57;90.04
6216;BME280;3141;49.234;9.326;2023-11-19T03:33:36;99428.16;;;11.52;90.36
6216;BME280;3141;49.234;9.326;2023-11-19T03:34:38;99430.63;;;11.53;90.17
6216;BME280;3141;49.234;9.326;2023-11-19T03:35:39;99431.25;;;11.63;90.03
6216;BME280;3141;49.234;9.326;2023-11-19T03:36:41;99433.25;;;11.61;89.93
6216;BME280;3141;49.234;9.326;2023-11-19T03:37:43;99424.31;;;11.62;89.72
6216;BME280;3141;49.234;9.326;2023-11-19T03:38:44;99415.91;;;11.67;89.38
6216;BME280;3141;49.234;9.326;2023-11-19T03:39:45;99420.34;;;11.67;89.55
6216;BME280;3141;49.234;9.326;2023-11-19T03:40:46;99415.41;;;11.55;90.20
6216;BME280;3141;49.234;9.326;2023-11-19T03:41:47;99411.63;;;11.66;90.01
6216;BME280;3141;49.234;9.326;2023-11-19T03:42:47;99411.44;;;11.59;90.19
6216;BME280;3141;49.234;9.326;2023-11-19T03:43:48;99415.25;;;11.65;90.26
6216;BME280;3141;49.234;9.326;2023-11-19T03:44:49;99414.75;;;11.70;90.13
6216;BME280;3141;49.234;9.326;2023-11-19T03:45:51;99408.44;;;11.71;90.37
6216;BME280;3141;49.234;9.326;2023-11-19T03:46:51;99410.78;;;11.57;90.78
6216;BME280;3141;49.234;9.326;2023-11-19T03:47:52;99412.06;;;11.61;90.73
6216;BME280;3141;49.234;9.326;2023-11-19T03:48:53;99402.16;;;11.72;90.19
6216;BME280;3141;49.234;9.326;2023-11-19T03:49:55;99404.97;;;11.78;89.49
6216;BME280;3141;49.234;9.326;2023-11-19T03:50:56;99396.19;;;11.78;89.53
6216;BME280;3141;49.234;9.326;2023-11-19T03:51:57;99395.22;;;11.71;90.21
6216;BME280;3141;49.234;9.326;2023-11-19T03:52:58;99395.03;;;11.80;89.63
6216;BME280;3141;49.234;9.326;2023-11-19T03:53:59;99401.97;;;11.81;89.18
6216;BME280;3141;49.234;9.326;2023-11-19T03:55:00;99406.44;;;11.81;89.60
6216;BME280;3141;49.234;9.326;2023-11-19T03:56:02;99397.81;;;11.79;89.49
6216;BME280;3141;49.234;9.326;2023-11-19T03:57:03;99407.75;;;11.85;89.15
6216;BME280;3141;49.234;9.326;2023-11-19T03:58:04;99414.06;;;11.84;88.96
6216;BME280;3141;49.234;9.326;2023-11-19T03:59:05;99414.75;;;11.70;89.76
6216;BME280;3141;49.234;9.326;2023-11-19T04:00:06;99415.38;;;11.63;90.83
6216;BME280;3141;49.234;9.326;2023-11-19T04:01:13;99412.75;;;11.72;90.63
6216;BME280;3141;49.234;9.326;2023-11-19T04:02:15;99414.25;;;11.66;90.82
6216;BME280;3141;49.234;9.326;2023-11-19T04:03:16;99420.66;;;11.63;91.83
6216;BME280;3141;49.234;9.326;2023-11-19T04:04:17;99409.25;;;11.79;91.03
6216;BME280;3141;49.234;9.326;2023-11-19T04:05:19;99412.06;;;11.78;90.58
6216;BME280;3141;49.234;9.326;2023-11-19T04:06:20;99413.03;;;11.85;90.21
6216;BME280;3141;49.234;9.326;2023-11-19T04:07:21;99419.19;;;11.85;90.12
6216;BME280;3141;49.234;9.326;2023-11-19T04:08:22;99408.09;;;11.82;90.26
6216;BME280;3141;49.234;9.326;2023-11-19T04:09:23;99405.75;;;11.87;90.00
6216;BME280;3141;49.234;9.326;2023-11-19T04:10:24;99400.13;;;11.90;89.83
6216;BME280;3141;49.234;9.326;2023-11-19T04:11:25;99404.75;;;11.96;89.91
6216;BME280;3141;49.234;9.326;2023-11-19T04:12:26;99405.38;;;11.98;89.38
6216;BME280;3141;49.234;9.326;2023-11-19T04:13:27;99410.22;;;11.86;90.12
6216;BME280;3141;49.234;9.326;2023-11-19T04:14:28;99409.38;;;11.86;90.44
6216;BME280;3141;49.234;9.326;2023-11-19T04:15:29;99412.06;;;11.78;90.77
6216;BME280;3141;49.234;9.326;2023-11-19T04:16:29;99406.09;;;11.84;90.53
6216;BME280;3141;49.234;9.326;2023-11-19T04:17:30;99409.06;;;11.89;90.24
6216;BME280;3141;49.234;9.326;2023-11-19T04:18:31;99408.38;;;11.95;90.00
6216;BME280;3141;49.234;9.326;2023-11-19T04:19:33;99411.53;;;11.90;90.00
6216;BME280;3141;49.234;9.326;2023-11-19T04:20:34;99406.72;;;11.94;90.15
6216;BME280;3141;49.234;9.326;2023-11-19T04:21:35;99416.50;;;11.93;89.93
6216;BME280;3141;49.234;9.326;2023-11-19T04:22:36;99412.84;;;11.94;90.87
6216;BME280;3141;49.234;9.326;2023-11-19T04:23:37;99414.69;;;11.86;90.25
6216;BME280;3141;49.234;9.326;2023-11-19T04:24:37;99406.44;;;11.81;90.37
6216;BME280;3141;49.234;9.326;2023-11-19T04:25:38;99412.84;;;11.94;90.11
6216;BME280;3141;49.234;9.326;2023-11-19T04:26:42;99409.38;;;11.94;89.78
6216;BME280;3141;49.234;9.326;2023-11-19T04:27:45;99407.22;;;11.97;89.99
6216;BME280;3141;49.234;9.326;2023-11-19T04:28:48;99404.03;;;12.02;89.87
6216;BME280;3141;49.234;9.326;2023-11-19T04:29:49;99410.84;;;12.04;89.71
6216;BME280;3141;49.234;9.326;2023-11-19T04:30:51;99408.19;;;12.04;89.32
6216;BME280;3141;49.234;9.326;2023-11-19T04:31:52;99402.53;;;12.07;89.27
6216;BME280;3141;49.234;9.326;2023-11-19T04:32:53;99400.72;;;12.08;89.29
6216;BME280;3141;49.234;9.326;2023-11-19T04:33:54;99401.34;;;12.10;89.26
6216;BME280;3141;49.234;9.326;2023-11-19T04:34:56;99394.75;;;12.06;89.28
6216;BME280;3141;49.234;9.326;2023-11-19T04:35:57;99390.81;;;12.02;89.74
6216;BME280;3141;49.234;9.326;2023-11-19T04:36:57;99394.75;;;12.06;89.75
6216;BME280;3141;49.234;9.326;2023-11-19T04:38:01;99391.75;;;12.09;90.01
6216;BME280;3141;49.234;9.326;2023-11-19T04:39:03;99385.31;;;12.11;89.36
6216;BME280;3141;49.234;9.326;2023-11-19T04:40:10;99385.94;;;12.13;89.52
6216;BME280;3141;49.234;9.326;2023-11-19T04:41:12;99383.63;;;12.10;89.51
6216;BME280;3141;49.234;9.326;2023-11-19T04:42:15;99385.81;;;12.07;89.92
6216;BME280;3141;49.234;9.326;2023-11-19T04:43:17;99388.94;;;12.10;89.33
6216;BME280;3141;49.234;9.326;2023-11-19T04:44:18;99398.19;;;12.14;89.41
6216;BME280;3141;49.234;9.326;2023-11-19T04:45:19;99394.38;;;12.17;89.59
6216;BME280;3141;49.234;9.326;2023-11-19T04:46:21;99397.03;;;12.17;90.50
6216;BME280;3141;49.234;9.326;2023-11-19T04:47:22;99403.16;;;12.17;89.75
6216;BME280;3141;49.234;9.326;2023-11-19T04:48:23;99409.06;;;12.27;90.08
6216;BME280;3141;49.234;9.326;2023-11-19T04:49:25;99405.44;;;12.28;89.64
6216;BME280;3141;49.234;9.326;2023-11-19T04:50:27;99412.84;;;12.33;89.84
6216;BME280;3141;49.234;9.326;2023-11-19T04:51:28;99408.22;;;12.35;93.06
6216;BME280;3141;49.234;9.326;2023-11-19T04:52:29;99403.16;;;12.48;92.09
6216;BME280;3141;49.234;9.326;2023-11-19T04:53:30;99416.41;;;12.48;95.75
6216;BME280;3141;49.234;9.326;2023-11-19T04:54:31;99413.13;;;12.68;95.81
6216;BME280;3141;49.234;9.326;2023-11-19T04:55:33;99407.91;;;12.83;94.58
6216;BME280;3141;49.234;9.326;2023-11-19T04:56:35;99403.09;;;12.87;93.89
6216;BME280;3141;49.234;9.326;2023-11-19T04:57:37;99404.88;;;12.94;92.73
6216;BME280;3141;49.234;9.326;2023-11-19T04:58:39;99403.16;;;12.78;94.65
6216;BME280;3141;49.234;9.326;2023-11-19T04:59:40;99393.94;;;12.89;94.39
6216;BME280;3141;49.234;9.326;2023-11-19T05:00:42;99399.88;;;12.91;95.01
6216;BME280;3141;49.234;9.326;2023-11-19T05:01:47;99397.00;;;12.78;98.08
6216;BME280;3141;49.234;9.326;2023-11-19T05:02:48;99401.47;;;13.00;97.60
6216;BME280;3141;49.234;9.326;2023-11-19T05:03:49;99395.81;;;13.11;96.22
6216;BME280;3141;49.234;9.326;2023-11-19T05:04:51;99401.03;;;13.19;95.35
6216;BME280;3141;49.234;9.326;2023-11-19T05:05:52;99389.53;;;13.27;95.48
6216;BME280;3141;49.234;9.326;2023-11-19T05:06:53;99402.97;;;13.25;96.06
6216;BME280;3141;49.234;9.326;2023-11-19T05:07:54;99399.50;;;13.25;96.55
6216;BME280;3141;49.234;9.326;2023-11-19T05:08:58;99406.78;;;13.45;94.86
6216;BME280;3141;49.234;9.326;2023-11-19T05:09:59;99409.44;;;13.45;94.53
6216;BME280;3141;49.234;9.326;2023-11-19T05:11:00;99407.06;;;13.50;94.86
6216;BME280;3141;49.234;9.326;2023-11-19T05:12:00;99416.03;;;13.49;94.48
6216;BME280;3141;49.234;9.326;2023-11-19T05:13:02;99417.13;;;13.55;94.98
6216;BME280;3141;49.234;9.326;2023-11-19T05:14:03;99406.16;;;13.58;94.45
6216;BME280;3141;49.234;9.326;2023-11-19T05:15:05;99413.66;;;13.54;94.24
6216;BME280;3141;49.234;9.326;2023-11-19T05:16:06;99405.56;;;13.48;94.84
6216;BME280;3141;49.234;9.326;2023-11-19T05:17:07;99405.28;;;13.43;96.47
6216;BME280;3141;49.234;9.326;2023-11-19T05:18:08;99416.13;;;13.56;95.99
6216;BME280;3141;49.234;9.326;2023-11-19T05:19:09;99416.88;;;13.64;94.93
6216;BME280;3141;49.234;9.326;2023-11-19T05:20:10;99410.34;;;13.67;94.81
6216;BME280;3141;49.234;9.326;2023-11-19T05:21:13;99414.13;;;13.58;95.67
6216;BME280;3141;49.234;9.326;2023-11-19T05:22:15;99411.72;;;13.48;97.91
6216;BME280;3141;49.234;9.326;2023-11-19T05:23:15;99409.81;;;13.57;98.48
6216;BME280;3141;49.234;9.326;2023-11-19T05:24:17;99416.31;;;13.54;97.80
6216;BME280;3141;49.234;9.326;2023-11-19T05:25:18;99414.31;;;13.71;97.25
6216;BME280;3141;49.234;9.326;2023-11-19T05:26:21;99410.06;;;13.62;97.98
6216;BME280;3141;49.234;9.326;2023-11-19T05:27:22;99411.56;;;13.64;98.74
6216;BME280;3141;49.234;9.326;2023-11-19T05:28:24;99407.88;;;13.65;99.04
6216;BME280;3141;49.234;9.326;2023-11-19T05:29:26;99399.28;;;13.78;97.65
6216;BME280;3141;49.234;9.326;2023-11-19T05:30:27;99408.63;;;13.59;98.87
6216;BME280;3141;49.234;9.326;2023-11-19T05:31:28;99404.84;;;13.68;99.34
6216;BME280;3141;49.234;9.326;2023-11-19T05:32:29;99409.72;;;13.79;97.63
6216;BME280;3141;49.234;9.326;2023-11-19T05:33:30;99412.03;;;13.68;99.75
6216;BME280;3141;49.234;9.326;2023-11-19T05:34:31;99406.72;;;13.68;99.34
6216;BME280;3141;49.234;9.326;2023-11-19T05:35:32;99407.19;;;13.71;98.60